Few Clouds Current Weather (METAR) For Manchester Airport

All times on the weather descriptions are local

Observed at 19:50 - (22 mins ago)

Few Clouds

26°C

Few Clouds
Clouds: Few Clouds at 4,800ft
Wind: 310° at 09 knots
Visibility: Greater than 10km
QNH: 1010
Dew Point: 19°C
Runway in Use: Runways 23L/R

Sunrise Today: 04:43
Sunset Today: 21:42

Forecast Weather (TAF) For Manchester Airport

Issued at 01:00 - (30 days ago)


Runway in Use: Likely Runways 23L/R

Forecast valid until 01:00 on Friday

METAR/TAF RAW METAR / TAF

EGCC 011850Z 31009KT 9999 FEW048TCU 26/19 Q1010 NOSIG

Weather Widget

Put weather from any of our airports on your website with our weather widget.

Find Another Search

Airport Search


Please Wait Please Wait - Loading
Close
Close

Login

Username:

Password:

Remember Me:

Remember me on this computer

Forgotten your password? Get a reset password sent to your registered e-mail address

Close

User Private Message

Subject:

Message: